sensor_id;sensor_type;location;lat;lon;timestamp;temperature;humidity
14000;DHT22;7075;53.574;10.054;2022-12-20T01:07:16;8.20;99.90
14000;DHT22;7075;53.574;10.054;2022-12-20T01:09:42;8.20;99.90
14000;DHT22;7075;53.574;10.054;2022-12-20T01:12:07;8.20;99.90
14000;DHT22;7075;53.574;10.054;2022-12-20T01:14:33;8.20;99.90
14000;DHT22;7075;53.574;10.054;2022-12-20T01:16:59;8.30;99.90
14000;DHT22;7075;53.574;10.054;2022-12-20T01:19:25;8.20;99.90
14000;DHT22;7075;53.574;10.054;2022-12-20T01:21:52;8.20;99.90
14000;DHT22;7075;53.574;10.054;2022-12-20T01:24:18;8.20;99.90
14000;DHT22;7075;53.574;10.054;2022-12-20T01:26:45;8.30;99.90
14000;DHT22;7075;53.574;10.054;2022-12-20T01:29:11;8.20;99.90
14000;DHT22;7075;53.574;10.054;2022-12-20T01:31:38;8.30;99.90
14000;DHT22;7075;53.574;10.054;2022-12-20T01:34:05;8.30;99.90
14000;DHT22;7075;53.574;10.054;2022-12-20T01:36:33;8.30;99.90
14000;DHT22;7075;53.574;10.054;2022-12-20T01:39:06;8.30;99.90
14000;DHT22;7075;53.574;10.054;2022-12-20T01:41:33;8.30;99.90
14000;DHT22;7075;53.574;10.054;2022-12-20T01:44:04;8.30;99.90
14000;DHT22;7075;53.574;10.054;2022-12-20T01:46:32;8.30;99.90
14000;DHT22;7075;53.574;10.054;2022-12-20T01:49:27;8.30;99.90
14000;DHT22;7075;53.574;10.054;2022-12-20T01:52:01;8.30;99.90
14000;DHT22;7075;53.574;10.054;2022-12-20T01:54:33;8.30;99.90
14000;DHT22;7075;53.574;10.054;2022-12-20T01:57:03;8.30;99.90
14000;DHT22;7075;53.574;10.054;2022-12-20T01:59:30;8.40;99.90
14000;DHT22;7075;53.574;10.054;2022-12-20T02:01:58;8.40;99.90
14000;DHT22;7075;53.574;10.054;2022-12-20T02:04:25;8.40;99.90
14000;DHT22;7075;53.574;10.054;2022-12-20T02:06:51;8.50;99.90
14000;DHT22;7075;53.574;10.054;2022-12-20T02:09:16;8.50;99.90
14000;DHT22;7075;53.574;10.054;2022-12-20T02:20:31;8.60;99.90
14000;DHT22;7075;53.574;10.054;2022-12-20T02:28:44;8.70;99.90
14000;DHT22;7075;53.574;10.054;2022-12-20T02:31:14;8.70;99.90
14000;DHT22;7075;53.574;10.054;2022-12-20T02:33:45;8.70;99.90
14000;DHT22;7075;53.574;10.054;2022-12-20T02:36:15;8.80;99.90
14000;DHT22;7075;53.574;10.054;2022-12-20T02:38:41;8.80;99.90
14000;DHT22;7075;53.574;10.054;2022-12-20T02:43:42;8.90;99.90
14000;DHT22;7075;53.574;10.054;2022-12-20T02:46:29;8.90;99.90
14000;DHT22;7075;53.574;10.054;2022-12-20T02:49:02;8.90;99.90
14000;DHT22;7075;53.574;10.054;2022-12-20T02:51:29;9.00;99.90
14000;DHT22;7075;53.574;10.054;2022-12-20T02:53:57;9.00;99.90
14000;DHT22;7075;53.574;10.054;2022-12-20T02:56:32;9.00;99.90
14000;DHT22;7075;53.574;10.054;2022-12-20T02:59:01;9.00;99.90
14000;DHT22;7075;53.574;10.054;2022-12-20T03:01:32;9.00;99.90
14000;DHT22;7075;53.574;10.054;2022-12-20T03:03:59;9.10;99.90
14000;DHT22;7075;53.574;10.054;2022-12-20T03:06:25;9.20;99.90
14000;DHT22;7075;53.574;10.054;2022-12-20T03:08:53;9.20;99.90
14000;DHT22;7075;53.574;10.054;2022-12-20T03:11:19;9.30;99.90
14000;DHT22;7075;53.574;10.054;2022-12-20T03:13:44;9.30;99.90
14000;DHT22;7075;53.574;10.054;2022-12-20T03:16:10;9.20;99.90
14000;DHT22;7075;53.574;10.054;2022-12-20T03:18:36;9.30;99.90
14000;DHT22;7075;53.574;10.054;2022-12-20T03:21:02;9.40;99.90
14000;DHT22;7075;53.574;10.054;2022-12-20T03:23:28;9.40;99.90
14000;DHT22;7075;53.574;10.054;2022-12-20T03:25:54;9.40;99.90
14000;DHT22;7075;53.574;10.054;2022-12-20T03:28:20;9.40;99.90
14000;DHT22;7075;53.574;10.054;2022-12-20T03:30:45;9.40;99.90
14000;DHT22;7075;53.574;10.054;2022-12-20T03:33:11;9.40;99.90
14000;DHT22;7075;53.574;10.054;2022-12-20T03:35:36;9.40;99.90
14000;DHT22;7075;53.574;10.054;2022-12-20T03:38:02;9.40;99.90
14000;DHT22;7075;53.574;10.054;2022-12-20T03:40:28;9.40;99.90
14000;DHT22;7075;53.574;10.054;2022-12-20T03:42:55;9.40;99.90
14000;DHT22;7075;53.574;10.054;2022-12-20T03:45:20;9.40;99.90
14000;DHT22;7075;53.574;10.054;2022-12-20T03:47:46;9.40;99.90
14000;DHT22;7075;53.574;10.054;2022-12-20T03:50:11;9.40;99.90
14000;DHT22;7075;53.574;10.054;2022-12-20T03:52:37;9.40;99.90
14000;DHT22;7075;53.574;10.054;2022-12-20T03:55:03;9.40;99.90
14000;DHT22;7075;53.574;10.054;2022-12-20T03:57:29;9.40;99.90
14000;DHT22;7075;53.574;10.054;2022-12-20T03:59:56;9.40;99.90
14000;DHT22;7075;53.574;10.054;2022-12-20T04:02:24;9.50;99.90
14000;DHT22;7075;53.574;10.054;2022-12-20T04:04:50;9.50;99.90
14000;DHT22;7075;53.574;10.054;2022-12-20T04:07:16;9.60;99.90
14000;DHT22;7075;53.574;10.054;2022-12-20T04:09:42;9.60;99.90
14000;DHT22;7075;53.574;10.054;2022-12-20T04:12:07;9.60;99.90
14000;DHT22;7075;53.574;10.054;2022-12-20T04:14:33;9.60;99.90
14000;DHT22;7075;53.574;10.054;2022-12-20T04:17:00;9.70;99.90
14000;DHT22;7075;53.574;10.054;2022-12-20T04:19:26;9.70;99.90
14000;DHT22;7075;53.574;10.054;2022-12-20T04:21:51;9.70;99.90
14000;DHT22;7075;53.574;10.054;2022-12-20T04:24:17;9.70;99.90
14000;DHT22;7075;53.574;10.054;2022-12-20T04:26:42;9.70;99.90
14000;DHT22;7075;53.574;10.054;2022-12-20T04:32:30;9.70;99.90
14000;DHT22;7075;53.574;10.054;2022-12-20T04:34:56;9.70;99.90
14000;DHT22;7075;53.574;10.054;2022-12-20T04:37:21;9.70;99.90
14000;DHT22;7075;53.574;10.054;2022-12-20T04:39:47;9.70;99.90
14000;DHT22;7075;53.574;10.054;2022-12-20T04:42:12;9.70;99.90
14000;DHT22;7075;53.574;10.054;2022-12-20T04:44:38;9.60;99.90
14000;DHT22;7075;53.574;10.054;2022-12-20T04:47:04;9.60;99.90
14000;DHT22;7075;53.574;10.054;2022-12-20T04:49:30;9.60;99.90
14000;DHT22;7075;53.574;10.054;2022-12-20T04:51:56;9.60;99.90
14000;DHT22;7075;53.574;10.054;2022-12-20T04:54:41;9.60;99.90
14000;DHT22;7075;53.574;10.054;2022-12-20T04:57:07;9.60;99.90
14000;DHT22;7075;53.574;10.054;2022-12-20T04:59:34;9.50;99.90
14000;DHT22;7075;53.574;10.054;2022-12-20T05:02:00;9.50;99.90
14000;DHT22;7075;53.574;10.054;2022-12-20T05:04:25;9.50;99.90
14000;DHT22;7075;53.574;10.054;2022-12-20T05:06:51;9.50;99.90
14000;DHT22;7075;53.574;10.054;2022-12-20T05:09:16;9.50;99.90
14000;DHT22;7075;53.574;10.054;2022-12-20T05:11:42;9.50;99.90
14000;DHT22;7075;53.574;10.054;2022-12-20T05:14:08;9.40;99.90
14000;DHT22;7075;53.574;10.054;2022-12-20T05:16:33;9.50;99.90
14000;DHT22;7075;53.574;10.054;2022-12-20T05:18:59;9.50;99.90
14000;DHT22;7075;53.574;10.054;2022-12-20T05:21:24;9.50;99.90
14000;DHT22;7075;53.574;10.054;2022-12-20T05:24:08;9.40;99.90
14000;DHT22;7075;53.574;10.054;2022-12-20T05:26:53;9.40;99.90
14000;DHT22;7075;53.574;10.054;2022-12-20T05:29:18;9.40;99.90
14000;DHT22;7075;53.574;10.054;2022-12-20T05:31:44;9.40;99.90
14000;DHT22;7075;53.574;10.054;2022-12-20T05:34:10;9.30;99.90
14000;DHT22;7075;53.574;10.054;2022-12-20T05:36:35;9.30;99.90
14000;DHT22;7075;53.574;10.054;2022-12-20T05:39:01;9.30;99.90
14000;DHT22;7075;53.574;10.054;2022-12-20T05:41:26;9.30;99.90
14000;DHT22;7075;53.574;10.054;2022-12-20T05:43:52;9.30;99.90
14000;DHT22;7075;53.574;10.054;2022-12-20T05:46:17;9.30;99.90
14000;DHT22;7075;53.574;10.054;2022-12-20T05:48:43;9.30;99.90
14000;DHT22;7075;53.574;10.054;2022-12-20T05:51:08;9.20;99.90
14000;DHT22;7075;53.574;10.054;2022-12-20T05:53:34;9.20;99.90
14000;DHT22;7075;53.574;10.054;2022-12-20T05:56:00;9.20;99.90
14000;DHT22;7075;53.574;10.054;2022-12-20T05:58:26;9.20;99.90
14000;DHT22;7075;53.574;10.054;2022-12-20T06:00:52;9.20;99.90
14000;DHT22;7075;53.574;10.054;2022-12-20T06:03:17;9.20;99.90
14000;DHT22;7075;53.574;10.054;2022-12-20T06:05:43;9.20;99.90
14000;DHT22;7075;53.574;10.054;2022-12-20T06:08:10;9.20;99.90
14000;DHT22;7075;53.574;10.054;2022-12-20T06:10:37;9.20;99.90
14000;DHT22;7075;53.574;10.054;2022-12-20T06:13:06;9.20;99.90
14000;DHT22;7075;53.574;10.054;2022-12-20T06:15:32;9.20;99.90
14000;DHT22;7075;53.574;10.054;2022-12-20T06:17:57;9.20;99.90
14000;DHT22;7075;53.574;10.054;2022-12-20T06:20:23;9.20;99.90
14000;DHT22;7075;53.574;10.054;2022-12-20T06:22:49;9.20;99.90
14000;DHT22;7075;53.574;10.054;2022-12-20T06:25:15;9.20;99.90
14000;DHT22;7075;53.574;10.054;2022-12-20T06:27:41;9.20;99.90
14000;DHT22;7075;53.574;10.054;2022-12-20T06:30:08;9.20;99.90
14000;DHT22;7075;53.574;10.054;2022-12-20T06:32:34;9.20;99.90
14000;DHT22;7075;53.574;10.054;2022-12-20T06:35:00;9.30;99.90
14000;DHT22;7075;53.574;10.054;2022-12-20T06:37:25;9.30;99.90
14000;DHT22;7075;53.574;10.054;2022-12-20T06:39:51;9.30;99.90
14000;DHT22;7075;53.574;10.054;2022-12-20T06:42:16;9.30;99.90
14000;DHT22;7075;53.574;10.054;2022-12-20T06:44:42;9.40;99.90
14000;DHT22;7075;53.574;10.054;2022-12-20T06:47:07;9.40;99.90
14000;DHT22;7075;53.574;10.054;2022-12-20T06:49:33;9.40;99.90
14000;DHT22;7075;53.574;10.054;2022-12-20T06:51:58;9.40;99.90
14000;DHT22;7075;53.574;10.054;2022-12-20T06:54:24;9.30;99.90
14000;DHT22;7075;53.574;10.054;2022-12-20T06:56:49;9.40;99.90
14000;DHT22;7075;53.574;10.054;2022-12-20T06:59:15;9.30;99.90
14000;DHT22;7075;53.574;10.054;2022-12-20T07:01:41;9.30;99.90
14000;DHT22;7075;53.574;10.054;2022-12-20T07:04:07;9.30;99.90
14000;DHT22;7075;53.574;10.054;2022-12-20T07:06:32;9.30;99.90
14000;DHT22;7075;53.574;10.054;2022-12-20T07:08:58;9.30;99.90
14000;DHT22;7075;53.574;10.054;2022-12-20T07:11:24;9.30;99.90
14000;DHT22;7075;53.574;10.054;2022-12-20T07:13:54;9.30;99.90
14000;DHT22;7075;53.574;10.054;2022-12-20T07:16:20;9.30;99.90
14000;DHT22;7075;53.574;10.054;2022-12-20T07:18:49;9.30;99.90
14000;DHT22;7075;53.574;10.054;2022-12-20T07:21:15;9.30;99.90
14000;DHT22;7075;53.574;10.054;2022-12-20T07:23:41;9.20;99.90
14000;DHT22;7075;53.574;10.054;2022-12-20T07:26:08;9.20;99.90
14000;DHT22;7075;53.574;10.054;2022-12-20T07:28:34;9.20;99.90
14000;DHT22;7075;53.574;10.054;2022-12-20T07:31:01;9.20;99.90
14000;DHT22;7075;53.574;10.054;2022-12-20T07:33:27;9.20;99.90
14000;DHT22;7075;53.574;10.054;2022-12-20T07:35:59;9.20;99.90
14000;DHT22;7075;53.574;10.054;2022-12-20T07:38:25;9.30;99.90
14000;DHT22;7075;53.574;10.054;2022-12-20T07:40:50;9.30;99.90
14000;DHT22;7075;53.574;10.054;2022-12-20T07:43:16;9.20;99.90
14000;DHT22;7075;53.574;10.054;2022-12-20T07:45:41;9.20;99.90
14000;DHT22;7075;53.574;10.054;2022-12-20T07:48:07;9.20;99.90
14000;DHT22;7075;53.574;10.054;2022-12-20T07:50:33;9.20;99.90
14000;DHT22;7075;53.574;10.054;2022-12-20T07:53:00;9.20;99.90
14000;DHT22;7075;53.574;10.054;2022-12-20T07:55:26;9.20;99.90
14000;DHT22;7075;53.574;10.054;2022-12-20T07:57:57;9.20;99.90
14000;DHT22;7075;53.574;10.054;2022-12-20T08:00:25;9.20;99.90
14000;DHT22;7075;53.574;10.054;2022-12-20T08:03:01;9.20;99.90
14000;DHT22;7075;53.574;10.054;2022-12-20T08:05:29;9.20;99.90
14000;DHT22;7075;53.574;10.054;2022-12-20T08:07:58;9.20;99.90
14000;DHT22;7075;53.574;10.054;2022-12-20T08:10:24;9.20;99.90
14000;DHT22;7075;53.574;10.054;2022-12-20T08:12:50;9.20;99.90
14000;DHT22;7075;53.574;10.054;2022-12-20T08:15:16;9.20;99.90
14000;DHT22;7075;53.574;10.054;2022-12-20T08:17:42;9.20;99.90
14000;DHT22;7075;53.574;10.054;2022-12-20T08:20:07;9.20;99.90
14000;DHT22;7075;53.574;10.054;2022-12-20T08:22:33;9.20;99.90
14000;DHT22;7075;53.574;10.054;2022-12-20T08:24:59;9.20;99.90
14000;DHT22;7075;53.574;10.054;2022-12-20T08:27:25;9.20;99.90
14000;DHT22;7075;53.574;10.054;2022-12-20T08:29:50;9.20;99.90
14000;DHT22;7075;53.574;10.054;2022-12-20T08:32:16;9.20;99.90
14000;DHT22;7075;53.574;10.054;2022-12-20T08:34:41;9.20;99.90
14000;DHT22;7075;53.574;10.054;2022-12-20T08:37:07;9.20;99.90
14000;DHT22;7075;53.574;10.054;2022-12-20T08:39:33;9.20;99.90
14000;DHT22;7075;53.574;10.054;2022-12-20T08:41:58;9.20;99.90
14000;DHT22;7075;53.574;10.054;2022-12-20T08:44:24;9.20;99.90
14000;DHT22;7075;53.574;10.054;2022-12-20T08:46:50;9.20;99.90
14000;DHT22;7075;53.574;10.054;2022-12-20T08:49:16;9.20;99.90
14000;DHT22;7075;53.574;10.054;2022-12-20T08:51:42;9.30;99.90
14000;DHT22;7075;53.574;10.054;2022-12-20T08:54:07;9.30;99.90
14000;DHT22;7075;53.574;10.054;2022-12-20T08:56:33;9.30;99.90
14000;DHT22;7075;53.574;10.054;2022-12-20T08:58:58;9.30;99.90
14000;DHT22;7075;53.574;10.054;2022-12-20T09:01:24;9.30;99.90
14000;DHT22;7075;53.574;10.054;2022-12-20T09:03:51;9.30;99.90
14000;DHT22;7075;53.574;10.054;2022-12-20T09:06:20;9.40;99.90
14000;DHT22;7075;53.574;10.054;2022-12-20T09:08:46;9.40;99.90
14000;DHT22;7075;53.574;10.054;2022-12-20T09:11:18;9.40;99.90
14000;DHT22;7075;53.574;10.054;2022-12-20T09:13:45;9.50;99.90
14000;DHT22;7075;53.574;10.054;2022-12-20T09:16:13;9.50;99.90
14000;DHT22;7075;53.574;10.054;2022-12-20T09:18:39;9.60;99.90
14000;DHT22;7075;53.574;10.054;2022-12-20T09:21:06;9.60;99.90
14000;DHT22;7075;53.574;10.054;2022-12-20T09:23:33;9.60;99.90
14000;DHT22;7075;53.574;10.054;2022-12-20T09:26:16;9.60;99.90
14000;DHT22;7075;53.574;10.054;2022-12-20T09:28:43;9.70;99.90
14000;DHT22;7075;53.574;10.054;2022-12-20T09:31:15;9.70;99.90
14000;DHT22;7075;53.574;10.054;2022-12-20T09:33:41;9.70;99.90
14000;DHT22;7075;53.574;10.054;2022-12-20T09:36:11;9.70;99.90
14000;DHT22;7075;53.574;10.054;2022-12-20T09:38:37;9.70;99.90
14000;DHT22;7075;53.574;10.054;2022-12-20T09:41:04;9.70;99.90
14000;DHT22;7075;53.574;10.054;2022-12-20T09:43:31;9.70;99.90
14000;DHT22;7075;53.574;10.054;2022-12-20T09:46:00;9.70;99.90
14000;DHT22;7075;53.574;10.054;2022-12-20T09:48:36;9.70;99.90
14000;DHT22;7075;53.574;10.054;2022-12-20T09:54:01;9.70;99.90
14000;DHT22;7075;53.574;10.054;2022-12-20T09:56:45;9.70;99.90
14000;DHT22;7075;53.574;10.054;2022-12-20T09:59:18;9.80;99.90
14000;DHT22;7075;53.574;10.054;2022-12-20T10:01:46;9.80;99.90
14000;DHT22;7075;53.574;10.054;2022-12-20T10:04:32;9.80;99.90
14000;DHT22;7075;53.574;10.054;2022-12-20T10:07:38;9.80;99.90
14000;DHT22;7075;53.574;10.054;2022-12-20T10:10:20;9.90;99.90
14000;DHT22;7075;53.574;10.054;2022-12-20T10:13:01;9.90;99.90
14000;DHT22;7075;53.574;10.054;2022-12-20T10:21:07;9.90;99.90
14000;DHT22;7075;53.574;10.054;2022-12-20T10:23:59;9.90;99.90
14000;DHT22;7075;53.574;10.054;2022-12-20T10:26:26;9.90;99.90
14000;DHT22;7075;53.574;10.054;2022-12-20T10:28:51;9.90;99.90
14000;DHT22;7075;53.574;10.054;2022-12-20T10:31:17;9.90;99.90
14000;DHT22;7075;53.574;10.054;2022-12-20T10:33:44;9.90;99.90
14000;DHT22;7075;53.574;10.054;2022-12-20T10:36:27;9.90;99.90
14000;DHT22;7075;53.574;10.054;2022-12-20T10:39:00;10.00;99.90
14000;DHT22;7075;53.574;10.054;2022-12-20T10:41:29;10.00;99.90
14000;DHT22;7075;53.574;10.054;2022-12-20T10:43:59;10.10;99.90
14000;DHT22;7075;53.574;10.054;2022-12-20T10:46:37;10.10;99.90
14000;DHT22;7075;53.574;10.054;2022-12-20T10:52:01;10.20;99.90
14000;DHT22;7075;53.574;10.054;2022-12-20T10:54:33;10.20;99.90
14000;DHT22;7075;53.574;10.054;2022-12-20T10:57:02;10.30;99.90
14000;DHT22;7075;53.574;10.054;2022-12-20T10:59:34;10.30;99.90
14000;DHT22;7075;53.574;10.054;2022-12-20T11:02:02;10.30;99.90
14000;DHT22;7075;53.574;10.054;2022-12-20T11:04:40;10.30;99.90
14000;DHT22;7075;53.574;10.054;2022-12-20T11:07:25;10.30;99.90
14000;DHT22;7075;53.574;10.054;2022-12-20T11:09:57;10.30;99.90
14000;DHT22;7075;53.574;10.054;2022-12-20T11:12:23;10.30;99.90
14000;DHT22;7075;53.574;10.054;2022-12-20T11:14:49;10.40;99.90
14000;DHT22;7075;53.574;10.054;2022-12-20T11:17:28;10.40;99.90
14000;DHT22;7075;53.574;10.054;2022-12-20T11:20:34;10.40;99.90
14000;DHT22;7075;53.574;10.054;2022-12-20T11:31:34;10.30;99.90
14000;DHT22;7075;53.574;10.054;2022-12-20T11:37:19;10.40;99.90
14000;DHT22;7075;53.574;10.054;2022-12-20T11:40:05;10.40;99.90
14000;DHT22;7075;53.574;10.054;2022-12-20T11:42:42;10.50;99.90
14000;DHT22;7075;53.574;10.054;2022-12-20T11:53:29;10.70;99.90
14000;DHT22;7075;53.574;10.054;2022-12-20T11:56:01;10.70;99.90
14000;DHT22;7075;53.574;10.054;2022-12-20T11:58:39;10.70;99.90
14000;DHT22;7075;53.574;10.054;2022-12-20T12:01:12;10.80;99.90
14000;DHT22;7075;53.574;10.054;2022-12-20T12:03:43;10.80;99.90
14000;DHT22;7075;53.574;10.054;2022-12-20T12:06:21;10.80;99.90
14000;DHT22;7075;53.574;10.054;2022-12-20T12:08:53;10.90;99.90
14000;DHT22;7075;53.574;10.054;2022-12-20T12:11:25;10.90;99.90
14000;DHT22;7075;53.574;10.054;2022-12-20T12:13:53;10.90;99.90
14000;DHT22;7075;53.574;10.054;2022-12-20T12:16:36;10.90;99.90
14000;DHT22;7075;53.574;10.054;2022-12-20T12:19:08;10.90;99.90
14000;DHT22;7075;53.574;10.054;2022-12-20T12:21:38;10.90;99.90
14000;DHT22;7075;53.574;10.054;2022-12-20T12:27:19;10.90;99.90
14000;DHT22;7075;53.574;10.054;2022-12-20T12:29:46;10.90;99.90
14000;DHT22;7075;53.574;10.054;2022-12-20T12:32:34;10.90;99.90
14000;DHT22;7075;53.574;10.054;2022-12-20T12:46:12;11.00;99.90
14000;DHT22;7075;53.574;10.054;2022-12-20T12:49:05;10.90;99.90
14000;DHT22;7075;53.574;10.054;2022-12-20T12:51:38;10.90;99.90
14000;DHT22;7075;53.574;10.054;2022-12-20T12:56:53;10.80;99.90
14000;DHT22;7075;53.574;10.054;2022-12-20T12:59:44;10.70;99.90
14000;DHT22;7075;53.574;10.054;2022-12-20T13:15:01;10.50;99.90
14000;DHT22;7075;53.574;10.054;2022-12-20T13:19:54;10.50;99.90
14000;DHT22;7075;53.574;10.054;2022-12-20T13:22:22;10.40;99.90
14000;DHT22;7075;53.574;10.054;2022-12-20T13:25:01;10.40;99.90
14000;DHT22;7075;53.574;10.054;2022-12-20T13:27:40;10.40;99.90
14000;DHT22;7075;53.574;10.054;2022-12-20T13:40:48;10.40;99.90
14000;DHT22;7075;53.574;10.054;2022-12-20T13:45:54;10.30;99.90
14000;DHT22;7075;53.574;10.054;2022-12-20T13:48:27;10.30;99.90
14000;DHT22;7075;53.574;10.054;2022-12-20T13:50:55;10.30;99.90
14000;DHT22;7075;53.574;10.054;2022-12-20T13:53:23;10.20;99.90
14000;DHT22;7075;53.574;10.054;2022-12-20T13:55:49;10.20;99.90
14000;DHT22;7075;53.574;10.054;2022-12-20T13:58:21;10.20;99.90
14000;DHT22;7075;53.574;10.054;2022-12-20T14:00:48;10.30;99.90
14000;DHT22;7075;53.574;10.054;2022-12-20T14:03:41;10.30;99.90
14000;DHT22;7075;53.574;10.054;2022-12-20T14:06:11;10.30;99.90
14000;DHT22;7075;53.574;10.054;2022-12-20T14:08:46;10.30;99.90
14000;DHT22;7075;53.574;10.054;2022-12-20T14:11:13;10.30;99.90
14000;DHT22;7075;53.574;10.054;2022-12-20T14:13:39;10.30;99.90
14000;DHT22;7075;53.574;10.054;2022-12-20T14:16:12;10.30;99.90
14000;DHT22;7075;53.574;10.054;2022-12-20T14:18:38;10.30;99.90
14000;DHT22;7075;53.574;10.054;2022-12-20T14:21:05;10.30;99.90
14000;DHT22;7075;53.574;10.054;2022-12-20T14:23:42;10.20;99.90
14000;DHT22;7075;53.574;10.054;2022-12-20T14:26:16;10.20;99.90
14000;DHT22;7075;53.574;10.054;2022-12-20T14:28:45;10.10;99.90
14000;DHT22;7075;53.574;10.054;2022-12-20T14:31:37;10.10;99.90
14000;DHT22;7075;53.574;10.054;2022-12-20T14:36:44;10.10;99.90
14000;DHT22;7075;53.574;10.054;2022-12-20T14:39:31;10.10;99.90
14000;DHT22;7075;53.574;10.054;2022-12-20T14:41:58;10.10;99.90
14000;DHT22;7075;53.574;10.054;2022-12-20T14:44:26;10.00;99.90
14000;DHT22;7075;53.574;10.054;2022-12-20T14:47:03;10.00;99.90
14000;DHT22;7075;53.574;10.054;2022-12-20T14:49:37;10.00;99.90
14000;DHT22;7075;53.574;10.054;2022-12-20T14:52:33;10.00;99.90
14000;DHT22;7075;53.574;10.054;2022-12-20T14:57:38;10.00;99.90
14000;DHT22;7075;53.574;10.054;2022-12-20T15:00:15;9.90;99.90
14000;DHT22;7075;53.574;10.054;2022-12-20T15:08:20;9.90;99.90
14000;DHT22;7075;53.574;10.054;2022-12-20T15:11:11;9.90;99.90
14000;DHT22;7075;53.574;10.054;2022-12-20T15:13:43;9.90;99.90
14000;DHT22;7075;53.574;10.054;2022-12-20T15:16:24;9.90;99.90
14000;DHT22;7075;53.574;10.054;2022-12-20T15:18:55;9.90;99.90
14000;DHT22;7075;53.574;10.054;2022-12-20T15:21:31;9.90;99.90
14000;DHT22;7075;53.574;10.054;2022-12-20T15:23:59;9.80;99.90
14000;DHT22;7075;53.574;10.054;2022-12-20T15:26:27;9.90;99.90
14000;DHT22;7075;53.574;10.054;2022-12-20T15:28:55;9.80;99.90
14000;DHT22;7075;53.574;10.054;2022-12-20T15:31:22;9.90;99.90
14000;DHT22;7075;53.574;10.054;2022-12-20T15:33:49;9.80;99.90
14000;DHT22;7075;53.574;10.054;2022-12-20T15:36:24;9.80;99.90
14000;DHT22;7075;53.574;10.054;2022-12-20T15:38:51;9.90;99.90
14000;DHT22;7075;53.574;10.054;2022-12-20T15:41:26;9.90;99.90
14000;DHT22;7075;53.574;10.054;2022-12-20T15:43:55;9.90;99.90
14000;DHT22;7075;53.574;10.054;2022-12-20T15:46:21;9.90;99.90
14000;DHT22;7075;53.574;10.054;2022-12-20T15:48:47;9.90;99.90
14000;DHT22;7075;53.574;10.054;2022-12-20T15:51:20;9.90;99.90
14000;DHT22;7075;53.574;10.054;2022-12-20T15:53:48;9.90;99.90
14000;DHT22;7075;53.574;10.054;2022-12-20T15:56:19;9.90;99.90
14000;DHT22;7075;53.574;10.054;2022-12-20T15:58:46;9.90;99.90
14000;DHT22;7075;53.574;10.054;2022-12-20T16:01:15;9.90;99.90
14000;DHT22;7075;53.574;10.054;2022-12-20T16:03:42;9.90;99.90
14000;DHT22;7075;53.574;10.054;2022-12-20T16:06:09;9.90;99.90
14000;DHT22;7075;53.574;10.054;2022-12-20T16:08:37;9.90;99.90
14000;DHT22;7075;53.574;10.054;2022-12-20T16:11:05;9.90;99.90
14000;DHT22;7075;53.574;10.054;2022-12-20T16:13:30;10.00;99.90
14000;DHT22;7075;53.574;10.054;2022-12-20T16:15:56;10.00;99.90
14000;DHT22;7075;53.574;10.054;2022-12-20T16:18:21;10.00;99.90
14000;DHT22;7075;53.574;10.054;2022-12-20T16:20:47;10.00;99.90
14000;DHT22;7075;53.574;10.054;2022-12-20T16:23:19;10.00;99.90
14000;DHT22;7075;53.574;10.054;2022-12-20T16:25:49;10.00;99.90
14000;DHT22;7075;53.574;10.054;2022-12-20T16:28:15;10.10;99.90
14000;DHT22;7075;53.574;10.054;2022-12-20T16:30:41;10.00;99.90
14000;DHT22;7075;53.574;10.054;2022-12-20T16:33:18;10.10;99.90
14000;DHT22;7075;53.574;10.054;2022-12-20T16:35:44;10.10;99.90
14000;DHT22;7075;53.574;10.054;2022-12-20T16:38:09;10.10;99.90
14000;DHT22;7075;53.574;10.054;2022-12-20T16:40:35;10.10;99.90
14000;DHT22;7075;53.574;10.054;2022-12-20T16:43:00;10.10;99.90
14000;DHT22;7075;53.574;10.054;2022-12-20T16:45:30;10.00;99.90
14000;DHT22;7075;53.574;10.054;2022-12-20T16:47:56;10.10;99.90
14000;DHT22;7075;53.574;10.054;2022-12-20T16:50:25;10.00;99.90
14000;DHT22;7075;53.574;10.054;2022-12-20T16:52:51;10.00;99.90
14000;DHT22;7075;53.574;10.054;2022-12-20T16:55:24;10.00;99.90
14000;DHT22;7075;53.574;10.054;2022-12-20T16:57:51;10.00;99.90
14000;DHT22;7075;53.574;10.054;2022-12-20T17:00:22;10.00;99.90
14000;DHT22;7075;53.574;10.054;2022-12-20T17:02:48;9.90;99.90
14000;DHT22;7075;53.574;10.054;2022-12-20T17:05:30;10.00;99.90
14000;DHT22;7075;53.574;10.054;2022-12-20T17:07:56;10.00;99.90
14000;DHT22;7075;53.574;10.054;2022-12-20T17:10:24;10.00;99.90
14000;DHT22;7075;53.574;10.054;2022-12-20T17:12:50;10.00;99.90
14000;DHT22;7075;53.574;10.054;2022-12-20T17:15:27;10.00;99.90
14000;DHT22;7075;53.574;10.054;2022-12-20T17:17:53;10.00;99.90
14000;DHT22;7075;53.574;10.054;2022-12-20T17:20:21;10.00;99.90
14000;DHT22;7075;53.574;10.054;2022-12-20T17:22:48;10.00;99.90
14000;DHT22;7075;53.574;10.054;2022-12-20T17:25:20;10.00;99.90
14000;DHT22;7075;53.574;10.054;2022-12-20T17:27:47;10.10;99.90
14000;DHT22;7075;53.574;10.054;2022-12-20T17:30:13;10.10;99.90
14000;DHT22;7075;53.574;10.054;2022-12-20T17:32:38;10.10;99.90
14000;DHT22;7075;53.574;10.054;2022-12-20T17:35:05;10.20;99.90
14000;DHT22;7075;53.574;10.054;2022-12-20T17:37:32;10.20;99.90
14000;DHT22;7075;53.574;10.054;2022-12-20T17:39:58;10.20;99.90
14000;DHT22;7075;53.574;10.054;2022-12-20T17:42:23;10.30;99.90
14000;DHT22;7075;53.574;10.054;2022-12-20T17:44:49;10.30;99.90
14000;DHT22;7075;53.574;10.054;2022-12-20T17:47:15;10.30;99.90
14000;DHT22;7075;53.574;10.054;2022-12-20T17:49:41;10.40;99.90
14000;DHT22;7075;53.574;10.054;2022-12-20T17:52:14;10.40;99.90
14000;DHT22;7075;53.574;10.054;2022-12-20T17:54:39;10.40;99.90
14000;DHT22;7075;53.574;10.054;2022-12-20T17:57:11;10.40;99.90
14000;DHT22;7075;53.574;10.054;2022-12-20T17:59:36;10.40;99.90
14000;DHT22;7075;53.574;10.054;2022-12-20T18:02:02;10.40;99.90
14000;DHT22;7075;53.574;10.054;2022-12-20T18:04:27;10.50;99.90
14000;DHT22;7075;53.574;10.054;2022-12-20T18:06:53;10.50;99.90
14000;DHT22;7075;53.574;10.054;2022-12-20T18:09:20;10.50;99.90
14000;DHT22;7075;53.574;10.054;2022-12-20T18:11:46;10.50;99.90
14000;DHT22;7075;53.574;10.054;2022-12-20T18:14:13;10.50;99.90
14000;DHT22;7075;53.574;10.054;2022-12-20T18:16:39;10.50;99.90
14000;DHT22;7075;53.574;10.054;2022-12-20T18:19:05;10.40;99.90
14000;DHT22;7075;53.574;10.054;2022-12-20T18:21:31;10.40;99.90
14000;DHT22;7075;53.574;10.054;2022-12-20T18:23:57;10.40;99.90
14000;DHT22;7075;53.574;10.054;2022-12-20T18:26:25;10.40;99.90
14000;DHT22;7075;53.574;10.054;2022-12-20T18:28:59;10.40;99.90
14000;DHT22;7075;53.574;10.054;2022-12-20T18:31:27;10.40;99.90
14000;DHT22;7075;53.574;10.054;2022-12-20T18:33:55;10.50;99.90
14000;DHT22;7075;53.574;10.054;2022-12-20T18:36:26;10.50;99.90
14000;DHT22;7075;53.574;10.054;2022-12-20T18:38:52;10.50;99.90
14000;DHT22;7075;53.574;10.054;2022-12-20T18:41:22;10.50;99.90
14000;DHT22;7075;53.574;10.054;2022-12-20T18:43:49;10.50;99.90
14000;DHT22;7075;53.574;10.054;2022-12-20T18:46:21;10.50;99.90